createdAt,value
2023-01-11T00:00:25.794Z,99178.19
2023-01-11T00:03:12.564Z,99168.19
2023-01-11T00:05:43.134Z,99175.50
2023-01-11T00:08:09.930Z,99162.91
2023-01-11T00:10:37.270Z,99168.50
2023-01-11T00:13:04.153Z,99157.78
2023-01-11T00:15:31.209Z,99168.50
2023-01-11T00:17:57.918Z,99160.31
2023-01-11T00:20:25.083Z,99161.00
2023-01-11T00:22:51.810Z,99160.31
2023-01-11T00:25:18.856Z,99163.00
2023-01-11T00:27:47.388Z,99162.91
2023-01-11T00:30:14.574Z,99163.94
2023-01-11T00:32:41.369Z,99163.00
2023-01-11T00:35:08.784Z,99161.25
2023-01-11T00:37:35.590Z,99165.66
2023-01-11T00:40:02.849Z,99164.97
2023-01-11T00:42:48.194Z,99162.09
2023-01-11T00:45:33.941Z,99156.66
2023-01-11T00:48:01.182Z,99161.41
2023-01-11T00:50:31.806Z,99161.41
2023-01-11T00:52:58.818Z,99159.53
2023-01-11T00:55:26.323Z,99160.41
2023-01-11T00:57:53.076Z,99156.06
2023-01-11T01:00:20.940Z,99162.38
2023-01-11T01:02:47.911Z,99150.69
2023-01-11T01:05:15.109Z,99152.53
2023-01-11T01:07:41.907Z,99155.88
2023-01-11T01:10:09.520Z,99166.78
2023-01-11T01:12:54.775Z,99170.25
2023-01-11T01:15:21.876Z,99164.91
2023-01-11T01:17:48.588Z,99166.78
2023-01-11T01:20:15.790Z,99161.41
2023-01-11T01:22:42.419Z,99168.69
2023-01-11T01:25:09.751Z,99156.94
2023-01-11T01:27:36.546Z,99166.84
2023-01-11T01:30:05.051Z,99171.38
2023-01-11T01:32:31.786Z,99170.50
2023-01-11T01:34:58.812Z,99172.22
2023-01-11T01:37:26.331Z,99171.38
2023-01-11T01:39:53.274Z,99168.69
2023-01-11T01:42:20.674Z,99168.94
2023-01-11T01:45:04.018Z,99170.34
2023-01-11T01:47:45.704Z,99159.97
2023-01-11T01:50:41.981Z,99160.91
2023-01-11T01:53:11.296Z,99156.94
2023-01-11T01:55:39.638Z,99158.13
2023-01-11T01:58:09.353Z,99159.97
2023-01-11T02:00:41.128Z,99159.97
2023-01-11T02:03:45.218Z,99151.66
2023-01-11T02:06:12.125Z,99147.25
2023-01-11T02:08:39.453Z,99140.84
2023-01-11T02:11:26.444Z,99142.06
2023-01-11T02:13:53.689Z,99141.88
2023-01-11T02:16:20.675Z,99132.00
2023-01-11T02:18:47.396Z,99133.84
2023-01-11T02:21:22.009Z,99136.00
2023-01-11T02:24:16.640Z,99132.56
2023-01-11T02:26:52.836Z,99135.06
2023-01-11T02:29:25.769Z,99126.22
2023-01-11T02:32:26.265Z,99126.94
2023-01-11T02:35:08.883Z,99138.59
2023-01-11T02:37:44.573Z,99136.09
2023-01-11T02:40:15.619Z,99144.81
2023-01-11T02:43:11.244Z,99145.09
2023-01-11T02:45:56.246Z,99145.88
2023-01-11T02:48:31.334Z,99149.41
2023-01-11T02:51:12.990Z,99147.78
2023-01-11T02:53:41.539Z,99133.66
2023-01-11T02:56:11.260Z,99136.16
2023-01-11T02:58:40.075Z,99138.84
2023-01-11T03:01:06.803Z,99131.69
2023-01-11T03:03:34.193Z,99127.38
2023-01-11T03:06:02.422Z,99126.41
2023-01-11T03:09:01.236Z,99117.31
2023-01-11T03:12:05.431Z,99117.50
2023-01-11T03:15:05.818Z,99125.63
2023-01-11T03:18:01.820Z,99122.00
2023-01-11T03:20:37.667Z,99120.19
2023-01-11T03:23:07.323Z,99122.78
2023-01-11T03:25:53.635Z,99126.41
2023-01-11T03:28:23.272Z,99127.28
2023-01-11T03:31:02.495Z,99123.75
2023-01-11T03:33:45.562Z,99119.25
2023-01-11T03:36:18.720Z,99121.16
2023-01-11T03:38:55.557Z,99114.72
2023-01-11T03:41:30.384Z,99111.38
2023-01-11T03:43:57.060Z,99116.66
2023-01-11T03:46:27.013Z,99112.22
2023-01-11T03:49:04.195Z,99112.13
2023-01-11T03:51:34.005Z,99109.38
2023-01-11T03:54:01.903Z,99109.53
2023-01-11T03:57:07.041Z,99107.06
2023-01-11T03:59:33.811Z,99103.16
2023-01-11T04:02:01.027Z,99104.25
2023-01-11T04:04:27.932Z,99099.78
2023-01-11T04:06:54.929Z,99097.81
2023-01-11T04:09:21.721Z,99097.03
2023-01-11T04:11:51.644Z,99104.09
2023-01-11T04:14:18.271Z,99105.16
2023-01-11T04:16:45.187Z,99096.94
2023-01-11T04:19:11.787Z,99097.88
2023-01-11T04:21:38.783Z,99094.59
2023-01-11T04:24:05.729Z,99095.28
2023-01-11T04:26:33.173Z,99091.91
2023-01-11T04:28:59.815Z,99088.03
2023-01-11T04:31:26.867Z,99085.63
2023-01-11T04:33:53.607Z,99087.59
2023-01-11T04:36:20.607Z,99083.03
2023-01-11T04:38:47.398Z,99074.19
2023-01-11T04:41:32.873Z,99075.41
2023-01-11T04:43:59.618Z,99070.81
2023-01-11T04:46:26.583Z,99076.78
2023-01-11T04:48:53.325Z,99078.69
2023-01-11T04:51:20.354Z,99080.34
2023-01-11T04:53:49.053Z,99080.59
2023-01-11T04:56:16.305Z,99071.72
2023-01-11T04:58:42.933Z,99072.56
2023-01-11T05:01:11.260Z,99069.81
2023-01-11T05:03:38.250Z,99074.66
2023-01-11T05:06:05.563Z,99069.38
2023-01-11T05:08:32.370Z,99070.06
2023-01-11T05:11:00.866Z,99069.28
2023-01-11T05:13:42.748Z,99071.00
2023-01-11T05:16:23.824Z,99060.28
2023-01-11T05:18:52.189Z,99055.81
2023-01-11T05:21:22.176Z,99048.03
2023-01-11T05:23:49.181Z,99049.03
2023-01-11T05:26:22.939Z,99040.06
2023-01-11T05:28:49.779Z,99043.88
2023-01-11T05:31:17.111Z,99044.03
2023-01-11T05:33:43.925Z,99037.66
2023-01-11T05:36:16.241Z,99038.63
2023-01-11T05:38:43.026Z,99047.56
2023-01-11T05:41:10.119Z,99041.44
2023-01-11T05:43:59.976Z,99047.63
2023-01-11T05:46:27.094Z,99042.28
2023-01-11T05:48:56.841Z,99040.75
2023-01-11T05:51:23.829Z,99039.84
2023-01-11T05:53:50.474Z,99039.84
2023-01-11T05:56:17.437Z,99045.41
2023-01-11T05:58:44.076Z,99047.22
2023-01-11T06:01:11.977Z,99049.72
2023-01-11T06:03:38.656Z,99040.41
2023-01-11T06:06:05.873Z,99045.50
2023-01-11T06:08:32.524Z,99041.41
2023-01-11T06:10:59.513Z,99040.41
2023-01-11T06:13:29.302Z,99036.25
2023-01-11T06:16:00.562Z,99035.44
2023-01-11T06:18:28.570Z,99031.06
2023-01-11T06:20:55.841Z,99027.78
2023-01-11T06:23:23.205Z,99025.09
2023-01-11T06:25:50.135Z,99029.50
2023-01-11T06:28:16.869Z,99018.78
2023-01-11T06:30:43.859Z,99024.38
2023-01-11T06:33:10.507Z,99025.34
2023-01-11T06:35:41.397Z,99030.72
2023-01-11T06:38:09.348Z,99038.22
2023-01-11T06:40:36.771Z,99036.22
2023-01-11T06:43:03.752Z,99033.72
2023-01-11T06:45:30.897Z,99034.03
2023-01-11T06:47:57.842Z,99029.50
2023-01-11T06:50:24.894Z,99028.53
2023-01-11T06:52:55.873Z,99031.66
2023-01-11T06:55:23.168Z,99031.56
2023-01-11T06:57:49.867Z,99041.47
2023-01-11T07:00:17.554Z,99044.75
2023-01-11T07:02:45.049Z,99042.34
2023-01-11T07:05:12.439Z,99028.28
2023-01-11T07:07:39.361Z,99038.25
2023-01-11T07:10:08.125Z,99037.31
2023-01-11T07:12:35.677Z,99030.22
2023-01-11T07:15:06.770Z,99024.09
2023-01-11T07:17:33.794Z,99018.75
2023-01-11T07:20:00.824Z,99018.66
2023-01-11T07:22:28.324Z,99019.44
2023-01-11T07:24:55.334Z,99014.16
2023-01-11T07:27:21.994Z,99011.78
2023-01-11T07:29:48.909Z,99006.25
2023-01-11T07:32:16.716Z,99009.00
2023-01-11T07:34:43.657Z,99004.69
2023-01-11T07:37:28.427Z,99004.59
2023-01-11T07:39:56.421Z,99002.31
2023-01-11T07:42:41.878Z,99002.09
2023-01-11T07:45:09.202Z,99007.34
2023-01-11T07:47:35.952Z,99003.75
2023-01-11T07:50:03.055Z,99015.31
2023-01-11T07:52:29.740Z,99013.47
2023-01-11T07:55:02.445Z,99009.78
2023-01-11T07:57:30.037Z,99005.28
2023-01-11T07:59:57.063Z,98997.25
2023-01-11T08:02:23.866Z,98991.13
2023-01-11T08:04:50.983Z,98996.31
2023-01-11T08:07:17.648Z,98993.81
2023-01-11T08:09:44.666Z,98992.88
2023-01-11T08:12:29.792Z,98977.69
2023-01-11T08:14:56.725Z,98982.88
2023-01-11T08:17:23.772Z,98980.19
2023-01-11T08:19:50.758Z,98982.78
2023-01-11T08:22:20.304Z,98982.78
2023-01-11T08:24:47.364Z,98981.81
2023-01-11T08:27:14.192Z,98977.06
2023-01-11T08:29:44.124Z,98982.34
2023-01-11T08:32:14.298Z,98981.31
2023-01-11T08:34:41.514Z,98986.66
2023-01-11T08:37:08.182Z,98993.56
2023-01-11T08:39:35.246Z,98995.31
2023-01-11T08:42:03.149Z,98997.00
2023-01-11T08:44:34.521Z,99003.94
2023-01-11T08:47:02.952Z,99010.22
2023-01-11T08:49:30.696Z,99012.75
2023-01-11T08:51:57.597Z,99017.16
2023-01-11T08:54:25.080Z,99017.75
2023-01-11T08:56:51.783Z,99013.09
2023-01-11T08:59:19.954Z,99012.94
2023-01-11T09:01:47.433Z,99011.69
2023-01-11T09:04:24.175Z,99020.59
2023-01-11T09:06:52.881Z,99016.81
2023-01-11T09:09:19.943Z,99017.56
2023-01-11T09:11:57.093Z,99008.53
2023-01-11T09:14:25.395Z,99009.22
2023-01-11T09:16:52.623Z,99009.91
2023-01-11T09:19:19.874Z,99003.63
2023-01-11T09:21:46.800Z,99002.56
2023-01-11T09:24:14.187Z,99002.47
2023-01-11T09:26:43.309Z,99000.56
2023-01-11T09:29:11.316Z,99000.13
2023-01-11T09:31:38.158Z,98991.84
2023-01-11T09:34:06.869Z,98990.88
2023-01-11T09:36:35.948Z,98986.19
2023-01-11T09:39:07.618Z,98979.03
2023-01-11T09:42:05.402Z,98971.94
2023-01-11T09:44:34.513Z,98979.03
2023-01-11T09:47:14.505Z,98975.13
2023-01-11T09:49:43.289Z,98965.16
2023-01-11T09:52:28.771Z,98957.72
2023-01-11T09:54:58.850Z,98949.41
2023-01-11T09:57:44.506Z,98952.09
2023-01-11T10:00:12.172Z,98952.47
2023-01-11T10:03:00.711Z,98952.41
2023-01-11T10:05:40.060Z,98938.72
2023-01-11T10:18:26.029Z,98932.78
2023-01-11T10:18:37.473Z,98937.97
2023-01-11T10:20:35.359Z,98932.50
2023-01-11T10:23:08.960Z,98927.72
2023-01-11T10:25:42.657Z,98909.03
2023-01-11T10:28:32.236Z,98908.09
2023-01-11T10:30:58.913Z,98909.53
2023-01-11T10:34:03.591Z,98903.13
2023-01-11T10:37:12.886Z,98911.75
2023-01-11T10:40:07.036Z,98913.25
2023-01-11T10:42:39.925Z,98907.69
2023-01-11T10:45:14.349Z,98912.00
2023-01-11T10:48:02.986Z,98910.97
2023-01-11T10:51:01.773Z,98908.09
2023-01-11T10:53:55.114Z,98907.09
2023-01-11T10:56:24.588Z,98898.00
2023-01-11T10:59:00.681Z,98887.19
2023-01-11T11:01:42.208Z,98886.25
2023-01-11T11:04:44.275Z,98884.22
2023-01-11T11:07:20.600Z,98879.41
2023-01-11T11:09:55.727Z,98877.38
2023-01-11T11:12:28.869Z,98874.50
2023-01-11T11:15:25.299Z,98866.47
2023-01-11T11:17:53.097Z,98868.63
2023-01-11T11:20:24.249Z,98863.34
2023-01-11T11:22:52.027Z,98856.94
2023-01-11T11:25:27.528Z,98854.81
2023-01-11T11:28:05.047Z,98851.75
2023-01-11T11:30:38.172Z,98852.41
2023-01-11T11:33:26.070Z,98841.34
2023-01-11T11:36:09.486Z,98834.81
2023-01-11T11:38:43.237Z,98829.13
2023-01-11T11:41:15.040Z,98818.94
2023-01-11T11:43:43.248Z,98809.50
2023-01-11T11:46:19.888Z,98813.97
2023-01-11T11:49:10.572Z,98809.06
2023-01-11T11:51:37.357Z,98810.69
2023-01-11T11:54:04.368Z,98811.63
2023-01-11T11:56:33.090Z,98807.47
2023-01-11T11:59:05.137Z,98798.25
2023-01-11T12:01:34.060Z,98792.97
2023-01-11T12:04:03.661Z,98787.28
2023-01-11T12:06:30.532Z,98788.56
2023-01-11T12:08:59.253Z,98784.91
2023-01-11T12:11:36.052Z,98791.03
2023-01-11T12:14:22.622Z,98791.88
2023-01-11T12:16:49.440Z,98784.06
2023-01-11T12:19:41.875Z,98786.63
2023-01-11T12:22:22.347Z,98779.09
2023-01-11T12:25:05.292Z,98780.41
2023-01-11T12:27:56.072Z,98778.19
2023-01-11T12:30:46.804Z,98771.97
2023-01-11T12:33:31.942Z,98765.81
2023-01-11T12:36:05.040Z,98762.59
2023-01-11T12:38:45.630Z,98751.84
2023-01-11T12:41:19.687Z,98743.69
2023-01-11T12:44:01.810Z,98742.09
2023-01-11T12:46:31.858Z,98736.63
2023-01-11T12:49:23.651Z,98733.69
2023-01-11T12:52:29.332Z,98729.09
2023-01-11T12:55:30.240Z,98721.66
2023-01-11T12:58:01.446Z,98719.94
2023-01-11T13:00:58.624Z,98713.06
2023-01-11T13:03:34.158Z,98716.94
2023-01-11T13:06:14.435Z,98714.25
2023-01-11T13:08:56.621Z,98710.50
2023-01-11T13:11:43.511Z,98703.06
2023-01-11T13:14:22.629Z,98701.44
2023-01-11T13:16:56.654Z,98702.31
2023-01-11T13:19:32.731Z,98699.28
2023-01-11T13:21:59.635Z,98691.91
2023-01-11T13:24:28.933Z,98696.41
2023-01-11T13:26:59.482Z,98698.44
2023-01-11T13:29:31.783Z,98694.69
2023-01-11T13:31:59.521Z,98681.16
2023-01-11T13:34:38.995Z,98674.03
2023-01-11T13:37:22.781Z,98681.16
2023-01-11T13:39:55.851Z,98675.00
2023-01-11T13:42:24.621Z,98681.25
2023-01-11T13:45:04.315Z,98672.56
2023-01-11T13:47:33.215Z,98673.41
2023-01-11T13:50:20.284Z,98672.41
2023-01-11T13:53:15.337Z,98680.47
2023-01-11T13:55:59.088Z,98691.38
2023-01-11T13:58:44.342Z,98676.19
2023-01-11T14:01:15.570Z,98681.56
2023-01-11T14:03:51.395Z,98678.88
2023-01-11T14:06:24.458Z,98685.09
2023-01-11T14:08:54.187Z,98681.56
2023-01-11T14:11:43.045Z,98685.44
2023-01-11T14:14:31.703Z,98689.09
2023-01-11T14:17:17.371Z,98680.06
2023-01-11T14:19:52.712Z,98684.38
2023-01-11T14:22:46.108Z,98693.38
2023-01-11T14:25:18.921Z,98697.16
2023-01-11T14:27:55.053Z,98697.16
2023-01-11T14:30:31.161Z,98702.66
2023-01-11T14:33:24.249Z,98696.53
2023-01-11T14:36:00.380Z,98692.22
2023-01-11T14:38:27.322Z,98690.69
2023-01-11T14:40:53.997Z,98697.69
2023-01-11T14:43:49.023Z,98681.63
2023-01-11T14:46:24.119Z,98688.22
2023-01-11T14:48:57.656Z,98689.16
2023-01-11T14:51:33.090Z,98673.25
2023-01-11T14:54:04.469Z,98675.19
2023-01-11T14:56:53.274Z,98671.88
2023-01-11T14:59:24.530Z,98665.66
2023-01-11T15:02:03.527Z,98664.75
2023-01-11T15:04:30.713Z,98654.03
2023-01-11T15:06:57.516Z,98654.03
2023-01-11T15:09:49.499Z,98643.63
2023-01-11T15:12:19.754Z,98647.16
2023-01-11T15:14:54.600Z,98651.69
2023-01-11T15:17:42.796Z,98645.31
2023-01-11T15:20:11.497Z,98636.00
2023-01-11T15:22:45.479Z,98640.41
2023-01-11T15:25:25.177Z,98643.09
2023-01-11T15:27:52.301Z,98639.00
2023-01-11T15:30:31.506Z,98639.72
2023-01-11T15:33:17.508Z,98643.50
2023-01-11T15:36:03.570Z,98637.41
2023-01-11T15:38:34.659Z,98634.91
2023-01-11T15:41:20.280Z,98630.41
2023-01-11T15:44:17.934Z,98631.69
2023-01-11T15:47:01.527Z,98624.81
2023-01-11T15:50:06.349Z,98628.47
2023-01-11T15:52:55.352Z,98626.09
2023-01-11T15:55:59.419Z,98624.25
2023-01-11T15:58:41.547Z,98619.88
2023-01-11T16:01:29.950Z,98621.56
2023-01-11T16:04:01.204Z,98629.09
2023-01-11T16:06:37.079Z,98626.41
2023-01-11T16:09:06.988Z,98622.03
2023-01-11T16:11:44.943Z,98615.88
2023-01-11T16:14:33.810Z,98622.22
2023-01-11T16:17:00.437Z,98624.16
2023-01-11T16:19:34.399Z,98614.28
2023-01-11T16:22:02.414Z,98620.81
2023-01-11T16:24:29.826Z,98622.53
2023-01-11T16:26:58.703Z,98624.38
2023-01-11T16:29:26.996Z,98619.75
2023-01-11T16:32:01.521Z,98625.00
2023-01-11T16:34:29.927Z,98614.38
2023-01-11T16:36:57.613Z,98619.09
2023-01-11T16:39:25.914Z,98628.41
2023-01-11T16:42:00.822Z,98629.28
2023-01-11T16:44:45.504Z,98625.97
2023-01-11T16:47:14.322Z,98615.22
2023-01-11T16:49:43.028Z,98620.47
2023-01-11T16:52:28.066Z,98616.28
2023-01-11T16:54:58.151Z,98613.81
2023-01-11T16:57:28.953Z,98624.44
2023-01-11T17:00:00.565Z,98633.22
2023-01-11T17:02:32.706Z,98619.16
2023-01-11T17:05:00.592Z,98629.91
2023-01-11T17:07:28.696Z,98632.59
2023-01-11T17:10:21.912Z,98630.31
2023-01-11T17:13:03.825Z,98632.88
2023-01-11T17:15:53.814Z,98640.84
2023-01-11T17:18:20.446Z,98636.13
2023-01-11T17:20:51.627Z,98632.03
2023-01-11T17:23:18.306Z,98639.13
2023-01-11T17:25:45.456Z,98632.03
2023-01-11T17:28:17.450Z,98634.72
2023-01-11T17:30:45.546Z,98626.88
2023-01-11T17:33:25.031Z,98638.50
2023-01-11T17:35:51.999Z,98637.59
2023-01-11T17:38:22.163Z,98628.59
2023-01-11T17:40:49.145Z,98623.34
2023-01-11T17:43:44.671Z,98621.50
2023-01-11T17:46:19.672Z,98620.47
2023-01-11T17:49:03.655Z,98624.19
2023-01-11T17:51:32.243Z,98624.09
2023-01-11T17:53:58.983Z,98637.72
2023-01-11T17:56:39.221Z,98632.44
2023-01-11T17:59:25.761Z,98622.69
2023-01-11T18:02:00.340Z,98622.50
2023-01-11T18:04:27.266Z,98628.16
2023-01-11T18:06:55.790Z,98626.97
2023-01-11T18:09:29.382Z,98621.59
2023-01-11T18:12:26.114Z,98611.22
2023-01-11T18:14:57.777Z,98613.78
2023-01-11T18:17:37.085Z,98614.53
2023-01-11T18:20:29.411Z,98612.16
2023-01-11T18:23:12.190Z,98596.81
2023-01-11T18:25:38.887Z,98596.91
2023-01-11T18:28:20.948Z,98593.19
2023-01-11T18:30:56.555Z,98589.97
2023-01-11T18:33:25.851Z,98574.72
2023-01-11T18:35:59.877Z,98584.69
2023-01-11T18:38:34.400Z,98575.66
2023-01-11T18:41:25.531Z,98574.72
2023-01-11T18:43:52.988Z,98584.78
2023-01-11T18:46:20.965Z,98582.88
2023-01-11T18:48:47.923Z,98591.66
2023-01-11T18:51:27.399Z,98592.84
2023-01-11T18:53:54.364Z,98591.22
2023-01-11T18:56:21.075Z,98593.91
2023-01-11T18:58:49.152Z,98594.69
2023-01-11T19:01:15.839Z,98587.47
2023-01-11T19:03:45.886Z,98588.44
2023-01-11T19:06:22.973Z,98589.63
2023-01-11T19:08:49.910Z,98587.13
2023-01-11T19:11:16.878Z,98589.50
2023-01-11T19:13:46.640Z,98593.16
2023-01-11T19:16:13.925Z,98589.41
2023-01-11T19:18:40.840Z,98583.06
2023-01-11T19:21:14.402Z,98585.75
2023-01-11T19:23:43.753Z,98601.19
2023-01-11T19:26:10.420Z,98590.56
2023-01-11T19:28:37.406Z,98595.19
2023-01-11T19:31:08.280Z,98588.09
2023-01-11T19:33:35.323Z,98588.75
2023-01-11T19:36:06.501Z,98588.19
2023-01-11T19:38:34.123Z,98579.72
2023-01-11T19:41:05.206Z,98602.38
2023-01-11T19:43:32.306Z,98605.59
2023-01-11T19:45:59.446Z,98619.22
2023-01-11T19:48:26.410Z,98614.91
2023-01-11T19:51:01.287Z,98613.00
2023-01-11T19:53:30.188Z,98620.81
2023-01-11T19:56:04.384Z,98625.22
2023-01-11T19:58:31.535Z,98637.88
2023-01-11T20:00:58.271Z,98640.56
2023-01-11T20:03:25.717Z,98648.81
2023-01-11T20:05:52.381Z,98649.56
2023-01-11T20:08:19.497Z,98656.56
2023-01-11T20:10:47.551Z,98664.72
2023-01-11T20:13:14.635Z,98670.91
2023-01-11T20:15:41.387Z,98679.81
2023-01-11T20:18:08.505Z,98679.53
2023-01-11T20:20:35.261Z,98688.22
2023-01-11T20:23:02.227Z,98686.63
2023-01-11T20:25:28.899Z,98688.22
2023-01-11T20:27:55.832Z,98683.19
2023-01-11T20:30:22.556Z,98679.63
2023-01-11T20:32:49.544Z,98681.44
2023-01-11T20:35:21.385Z,98687.56
2023-01-11T20:37:48.517Z,98691.97
2023-01-11T20:40:15.516Z,98694.47
2023-01-11T20:42:42.467Z,98689.84
2023-01-11T20:45:10.836Z,98683.09
2023-01-11T20:47:38.002Z,98673.19
2023-01-11T20:50:04.989Z,98691.13
2023-01-11T20:52:32.054Z,98689.50
2023-01-11T20:54:58.791Z,98695.63
2023-01-11T20:57:29.212Z,98700.13
2023-01-11T20:59:57.988Z,98696.03
2023-01-11T21:02:24.973Z,98703.94
2023-01-11T21:05:00.345Z,98698.28
2023-01-11T21:07:27.402Z,98698.00
2023-01-11T21:09:54.027Z,98706.25
2023-01-11T21:12:21.096Z,98705.41
2023-01-11T21:14:47.812Z,98717.53
2023-01-11T21:17:14.769Z,98720.72
2023-01-11T21:19:42.934Z,98714.94
2023-01-11T21:22:09.987Z,98708.72
2023-01-11T21:24:38.646Z,98714.28
2023-01-11T21:27:09.828Z,98710.47
2023-01-11T21:29:36.481Z,98703.25
2023-01-11T21:32:03.709Z,98709.38
2023-01-11T21:34:30.401Z,98705.28
2023-01-11T21:36:57.306Z,98710.38
2023-01-11T21:39:23.948Z,98712.16
2023-01-11T21:41:58.801Z,98708.53
2023-01-11T21:44:30.633Z,98716.47
2023-01-11T21:46:57.739Z,98706.59
2023-01-11T21:49:24.440Z,98707.34
2023-01-11T21:51:51.791Z,98716.16
2023-01-11T21:54:26.373Z,98717.13
2023-01-11T21:56:53.373Z,98726.88
2023-01-11T21:59:20.757Z,98727.88
2023-01-11T22:01:49.251Z,98736.47
2023-01-11T22:04:17.572Z,98734.94
2023-01-11T22:06:51.135Z,98735.53
2023-01-11T22:09:18.827Z,98727.56
2023-01-11T22:11:46.057Z,98725.84
2023-01-11T22:14:12.744Z,98730.34
2023-01-11T22:16:40.642Z,98733.03
2023-01-11T22:19:07.722Z,98730.34
2023-01-11T22:21:35.976Z,98727.66
2023-01-11T22:24:03.064Z,98728.63
2023-01-11T22:26:33.337Z,98734.84
2023-01-11T22:29:12.188Z,98736.88
2023-01-11T22:31:50.895Z,98726.88
2023-01-11T22:34:18.220Z,98728.16
2023-01-11T22:36:45.452Z,98738.78
2023-01-11T22:39:12.833Z,98740.81
2023-01-11T22:41:45.438Z,98739.00
2023-01-11T22:44:12.426Z,98749.44
2023-01-11T22:46:39.361Z,98750.38
2023-01-11T22:49:06.320Z,98754.78
2023-01-11T22:51:33.356Z,98753.94
2023-01-11T22:54:00.119Z,98754.69
2023-01-11T22:56:29.156Z,98763.78
2023-01-11T22:58:56.435Z,98769.06
2023-01-11T23:01:24.205Z,98768.09
2023-01-11T23:03:52.582Z,98772.91
2023-01-11T23:06:27.077Z,98772.16
2023-01-11T23:08:54.122Z,98778.38
2023-01-11T23:11:44.923Z,98777.28
2023-01-11T23:14:13.333Z,98772.91
2023-01-11T23:16:40.531Z,98777.28
2023-01-11T23:19:07.661Z,98779.13
2023-01-11T23:21:35.095Z,98777.44
2023-01-11T23:24:02.288Z,98781.16
2023-01-11T23:26:29.278Z,98781.16
2023-01-11T23:28:55.959Z,98785.47
2023-01-11T23:31:23.949Z,98781.25
2023-01-11T23:33:53.010Z,98771.38
2023-01-11T23:36:20.712Z,98781.16
2023-01-11T23:38:47.720Z,98777.53
2023-01-11T23:41:35.301Z,98779.50
2023-01-11T23:44:02.670Z,98777.63
2023-01-11T23:46:48.186Z,98773.44
2023-01-11T23:49:14.934Z,98774.38
2023-01-11T23:51:42.415Z,98778.47
2023-01-11T23:54:09.179Z,98770.72
2023-01-11T23:56:36.223Z,98767.09
2023-01-11T23:59:03.283Z,98775.97
